Time;durP1;ratioP1;P1;durP2;ratioP2;P2;SDS_P1;SDS_P2;PMS_P1;PMS_P2;Temp;Humidity;BMP_temperature;BMP_pressure;BME280_temperature;BME280_humidity;BME280_pressure;Samples;Min_cycle;Max_cycle;Signal;HPM_P1;HPM_P2
2023/05/10 00:02:36;;;;;;;6.05;2.58;;;;;;;12.36;78.90;100448.31;10458394;28;20551;-72
2023/05/10 00:07:37;;;;;;;4.45;2.42;;;;;;;12.42;78.86;100452.94;10458301;28;20041;-72
2023/05/10 00:12:37;;;;;;;4.90;2.00;;;;;;;12.45;78.57;100452.59;10457946;28;20041;-72
2023/05/10 00:17:39;;;;;;;7.45;2.17;;;;;;;12.42;78.64;100447.63;10458379;28;20045;-72
2023/05/10 00:22:40;;;;;;;6.00;1.95;;;;;;;12.53;78.32;100456.03;10462556;28;20113;-71
2023/05/10 00:27:41;;;;;;;6.82;2.10;;;;;;;12.52;78.66;100459.66;10500074;28;20094;-72
2023/05/10 00:32:43;;;;;;;6.68;2.00;;;;;;;12.38;78.27;100440.97;10498694;28;20123;-72
2023/05/10 00:37:44;;;;;;;4.35;1.95;;;;;;;12.42;78.70;100461.75;10498464;28;20056;-71
2023/05/10 00:42:44;;;;;;;7.40;2.10;;;;;;;12.37;78.80;100463.28;10499580;28;20039;-71
2023/05/10 00:47:45;;;;;;;9.10;2.53;;;;;;;12.40;78.78;100469.09;10498847;28;20040;-72
2023/05/10 00:52:46;;;;;;;5.93;2.05;;;;;;;12.32;78.49;100479.78;10498043;28;20114;-71
2023/05/10 00:57:47;;;;;;;6.60;2.20;;;;;;;12.23;78.32;100448.88;10498483;28;20057;-72
2023/05/10 01:02:49;;;;;;;7.20;2.15;;;;;;;12.33;78.13;100473.47;10497965;28;20048;-71
2023/05/10 01:07:50;;;;;;;3.67;2.20;;;;;;;12.22;77.76;100464.03;10498552;28;20535;-71
2023/05/10 01:12:51;;;;;;;4.88;2.60;;;;;;;11.85;78.28;100419.50;10497951;28;20132;-72
2023/05/10 01:17:52;;;;;;;15.35;2.88;;;;;;;12.13;78.60;100466.94;10496810;28;20127;-72
2023/05/10 01:23:06;;;;;;;5.63;1.83;;;;;;;12.18;78.72;100476.06;10497866;28;20579;-71
2023/05/10 01:28:45;;;;;;;7.18;2.60;;;;;;;12.17;78.62;100498.34;10496565;28;20101;-72
2023/05/10 01:33:59;;;;;;;3.67;2.13;;;;;;;12.18;77.91;100492.03;10462634;28;20048;-72
2023/05/10 01:39:17;;;;;;;8.90;2.75;;;;;;;11.75;77.73;100406.34;10496953;28;20047;-72
2023/05/10 01:44:39;;;;;;;10.27;2.08;;;;;;;12.26;77.37;100485.81;10496773;28;20444;-72
2023/05/10 01:49:46;;;;;;;6.38;2.33;;;;;;;12.12;76.80;100471.44;10495989;28;20040;-71
2023/05/10 01:54:55;;;;;;;19.30;2.97;;;;;;;12.13;77.13;100481.06;10496905;28;20048;-72
2023/05/10 01:59:59;;;;;;;7.35;2.60;;;;;;;12.14;76.58;100498.69;10495608;28;20051;-72
2023/05/10 02:05:03;;;;;;;12.05;2.35;;;;;;;12.06;76.89;100491.59;10495330;28;20493;-71
2023/05/10 02:10:07;;;;;;;11.10;2.67;;;;;;;11.51;76.76;100404.63;10496624;28;20570;-72
2023/05/10 02:15:10;;;;;;;10.18;2.00;;;;;;;11.94;76.77;100479.69;10489042;28;20540;-72
2023/05/10 02:20:12;;;;;;;7.80;2.38;;;;;;;12.02;76.64;100510.75;10481598;28;20140;-72
2023/05/10 02:25:15;;;;;;;11.57;2.70;;;;;;;11.96;76.35;100503.44;10454324;28;20041;-72
2023/05/10 02:30:17;;;;;;;7.90;2.63;;;;;;;11.87;76.43;100476.84;10453000;28;20492;-71
2023/05/10 02:35:19;;;;;;;7.63;2.03;;;;;;;11.83;75.89;100443.56;10461914;28;20041;-71
2023/05/10 02:40:22;;;;;;;9.98;2.40;;;;;;;12.04;75.71;100472.28;10461976;28;20052;-71
2023/05/10 02:45:27;;;;;;;13.70;2.88;;;;;;;11.75;75.44;100440.13;10461563;28;20390;-72
2023/05/10 02:50:32;;;;;;;11.43;2.47;;;;;;;12.14;75.73;100504.03;10472910;28;20095;-72
2023/05/10 02:55:38;;;;;;;;;;;;;;;12.28;75.80;100497.97;10461927;28;20059;-72
2023/05/10 03:00:39;;;;;;;14.27;2.40;;;;;;;12.27;75.01;100508.81;10461011;28;20016;-73
2023/05/10 03:05:40;;;;;;;4.45;2.08;;;;;;;12.32;74.96;100507.28;10461967;28;20559;-72
2023/05/10 03:11:08;;;;;;;10.25;2.60;;;;;;;12.47;74.50;100502.00;10461468;28;20558;-72
2023/05/10 03:16:15;;;;;;;11.10;2.60;;;;;;;12.57;73.75;100491.13;10460886;28;20633;-72
2023/05/10 03:21:18;;;;;;;7.82;2.50;;;;;;;12.46;72.36;100407.09;10469440;28;20083;-72
2023/05/10 03:26:28;;;;;;;7.05;2.45;;;;;;;12.99;71.94;100503.97;10461526;28;20047;-72
2023/05/10 03:31:29;;;;;;;7.28;2.08;;;;;;;12.84;71.96;100492.44;10479030;28;20386;-72
2023/05/10 03:36:29;;;;;;;14.35;2.50;;;;;;;12.34;71.84;100430.66;10462972;28;20037;-74
2023/05/10 03:41:30;;;;;;;12.48;2.92;;;;;;;12.89;72.00;100510.53;10486721;28;20052;-72
2023/05/10 03:46:31;;;;;;;20.92;2.88;;;;;;;13.15;71.75;100499.50;10500259;28;20036;-72
2023/05/10 03:51:32;;;;;;;5.90;1.85;;;;;;;13.42;71.02;100508.75;10500214;28;20048;-72
2023/05/10 03:56:32;;;;;;;5.95;1.95;;;;;;;13.18;69.45;100425.25;10500668;28;20049;-72
2023/05/10 04:01:34;;;;;;;6.10;2.15;;;;;;;13.88;68.82;100498.75;10500680;28;20055;-71
2023/05/10 04:06:35;;;;;;;6.47;2.25;;;;;;;14.67;67.90;100511.38;10500134;28;20041;-72
2023/05/10 04:11:36;;;;;;;6.88;2.00;;;;;;;15.63;66.00;100510.91;10499558;28;20041;-72
2023/05/10 04:16:36;;;;;;;7.60;1.90;;;;;;;17.46;62.27;100509.09;10499533;28;20043;-72
2023/05/10 04:21:37;;;;;;;6.72;1.60;;;;;;;18.22;59.56;100501.25;10499783;28;20399;-72
2023/05/10 04:26:38;;;;;;;11.13;2.13;;;;;;;18.18;58.70;100434.66;10499833;28;20037;-71
2023/05/10 04:31:39;;;;;;;3.78;1.42;;;;;;;19.64;57.08;100487.31;10498963;28;20060;-72
2023/05/10 04:36:40;;;;;;;9.70;1.90;;;;;;;20.21;54.41;100485.19;10499147;28;20050;-73
2023/05/10 04:41:41;;;;;;;5.30;1.50;;;;;;;20.80;51.50;100512.41;10498326;28;20075;-74
2023/05/10 04:46:41;;;;;;;4.00;1.42;;;;;;;20.54;50.89;100518.19;10498935;28;20035;-71
2023/05/10 04:51:42;;;;;;;5.38;1.55;;;;;;;20.37;50.67;100507.19;10495868;28;20396;-71
2023/05/10 04:56:43;;;;;;;13.23;1.83;;;;;;;19.80;51.86;100505.63;10497651;28;20056;-76
2023/05/10 05:01:44;;;;;;;4.60;1.73;;;;;;;19.73;51.43;100488.69;10497287;28;20097;-72
2023/05/10 05:06:45;;;;;;;6.78;1.70;;;;;;;19.10;51.65;100452.00;10497476;28;20051;-70
2023/05/10 05:11:45;;;;;;;6.43;1.30;;;;;;;19.31;52.01;100511.88;10497405;28;20040;-73
2023/05/10 05:16:46;;;;;;;5.55;1.70;;;;;;;19.17;52.41;100468.09;10497493;28;20039;-75
2023/05/10 05:21:47;;;;;;;4.13;1.30;;;;;;;19.55;51.85;100485.94;10495929;28;20048;-73
2023/05/10 05:26:48;;;;;;;6.78;1.70;;;;;;;19.41;51.95;100479.88;10497113;28;20059;-72
2023/05/10 05:31:49;;;;;;;5.40;1.48;;;;;;;19.25;51.54;100477.75;10497609;28;20089;-69
2023/05/10 05:36:50;;;;;;;4.93;1.65;;;;;;;19.37;51.68;100470.59;10495835;28;20522;-71
2023/05/10 05:41:51;;;;;;;6.45;1.50;;;;;;;19.16;51.70;100431.44;10496095;28;20045;-73
2023/05/10 05:46:52;;;;;;;12.63;1.67;;;;;;;19.41;51.46;100477.16;10496645;28;20115;-71
2023/05/10 05:51:53;;;;;;;16.10;2.17;;;;;;;19.48;51.37;100448.31;10496488;28;20043;-73
2023/05/10 05:56:55;;;;;;;24.65;2.40;;;;;;;20.02;51.04;100473.63;10497114;28;20125;-72
2023/05/10 06:01:56;;;;;;;7.18;1.38;;;;;;;19.88;49.89;100461.34;10495632;28;20044;-71
2023/05/10 06:06:57;;;;;;;5.15;1.55;;;;;;;19.76;50.06;100449.69;10485153;28;20045;-72
2023/05/10 06:11:57;;;;;;;8.02;1.88;;;;;;;20.33;50.00;100439.38;10454534;28;20094;-72
2023/05/10 06:16:59;;;;;;;16.42;1.90;;;;;;;21.01;48.71;100450.81;10454726;28;20171;-72
2023/05/10 06:22:00;;;;;;;11.60;1.52;;;;;;;20.98;47.87;100376.47;10453762;28;20041;-73
2023/05/10 06:27:01;;;;;;;10.18;1.55;;;;;;;21.24;47.49;100421.09;10454249;28;20044;-72
2023/05/10 06:32:03;;;;;;;12.20;1.60;;;;;;;21.49;47.05;100436.25;10454267;28;20090;-72
2023/05/10 06:37:03;;;;;;;6.10;1.63;;;;;;;21.60;46.97;100420.00;10454900;28;20041;-71
2023/05/10 06:42:05;;;;;;;6.78;1.70;;;;;;;21.75;46.74;100414.09;10453320;28;20409;-72
2023/05/10 06:47:05;;;;;;;7.85;1.55;;;;;;;21.97;45.99;100414.22;10452699;28;20068;-72
2023/05/10 06:52:06;;;;;;;6.40;1.50;;;;;;;22.32;46.01;100413.28;10453890;28;20044;-72
2023/05/10 06:57:07;;;;;;;4.32;1.48;;;;;;;22.00;45.79;100389.41;10454038;28;20076;-73
2023/05/10 07:02:08;;;;;;;15.10;1.83;;;;;;;22.19;46.34;100418.97;10453558;28;20040;-72
2023/05/10 07:07:08;;;;;;;8.52;1.88;;;;;;;22.23;45.93;100407.44;10453402;28;20044;-72
2023/05/10 07:12:09;;;;;;;9.38;1.90;;;;;;;22.13;46.18;100387.44;10463751;28;20124;-73
2023/05/10 07:17:10;;;;;;;10.85;2.00;;;;;;;22.20;45.81;100404.41;10462886;28;20045;-72
2023/05/10 07:22:11;;;;;;;7.93;1.70;;;;;;;22.58;46.06;100408.28;10495585;28;20033;-72
2023/05/10 07:27:12;;;;;;;28.88;2.38;;;;;;;22.76;45.50;100413.44;10460566;28;20412;-72
2023/05/10 07:32:13;;;;;;;10.35;2.13;;;;;;;22.68;45.16;100332.66;10459941;28;20037;-72
2023/05/10 07:37:14;;;;;;;13.52;2.15;;;;;;;23.45;44.10;100404.97;10460188;28;20037;-75
2023/05/10 07:42:14;;;;;;;7.10;1.67;;;;;;;23.19;43.10;100346.94;10459736;28;20041;-72
2023/05/10 07:47:15;;;;;;;7.95;1.70;;;;;;;24.14;42.75;100402.56;10459929;28;20033;-72
2023/05/10 07:52:16;;;;;;;11.63;2.00;;;;;;;23.85;43.07;100404.69;10459469;28;20032;-72
2023/05/10 07:57:20;;;;;;;19.23;2.30;;;;;;;23.84;43.22;100394.06;10458262;28;20523;-72
2023/05/10 08:02:21;;;;;;;5.40;2.08;;;;;;;23.62;43.40;100373.19;10459778;28;20123;-72
2023/05/10 08:07:22;;;;;;;7.13;2.75;;;;;;;23.91;43.55;100381.16;10458472;28;20045;-73
2023/05/10 08:12:23;;;;;;;8.02;2.47;;;;;;;23.88;42.57;100354.53;10458308;28;20041;-72
2023/05/10 08:17:24;;;;;;;5.72;1.77;;;;;;;24.01;42.39;100370.38;10461050;28;20046;-72
2023/05/10 08:22:25;;;;;;;11.73;2.20;;;;;;;23.19;41.77;100236.63;10499387;28;20150;-72
2023/05/10 08:27:26;;;;;;;8.60;2.15;;;;;;;24.23;41.60;100350.50;10499804;28;20041;-72
2023/05/10 08:32:27;;;;;;;8.10;1.88;;;;;;;24.21;41.14;100348.06;10498439;28;20044;-71
2023/05/10 08:37:30;;;;;;;13.27;2.10;;;;;;;23.60;40.92;100225.38;10498422;28;20044;-72
2023/05/10 08:42:37;;;;;;;14.30;2.95;;;;;;;24.56;41.08;100352.13;10499259;28;20528;-70
2023/05/10 08:47:39;;;;;;;54.88;3.10;;;;;;;24.23;42.07;100359.47;10498962;28;20044;-72
2023/05/10 08:52:41;;;;;;;12.07;1.80;;;;;;;23.91;41.33;100340.44;10498590;28;20044;-72
2023/05/10 08:57:51;;;;;;;33.17;3.58;;;;;;;23.41;42.78;100317.09;10497263;28;20052;-72
2023/05/10 09:02:53;;;;;;;10.57;2.17;;;;;;;23.37;42.68;100332.25;10496844;28;20041;-71
2023/05/10 09:07:54;;;;;;;11.52;2.03;;;;;;;23.38;42.11;100333.88;10498066;28;20044;-71
2023/05/10 09:12:57;;;;;;;14.45;2.53;;;;;;;23.40;42.29;100334.44;10497544;28;20450;-70
2023/05/10 09:17:59;;;;;;;6.43;1.63;;;;;;;23.38;42.36;100339.28;10497483;28;20146;-71
2023/05/10 09:22:59;;;;;;;8.82;2.25;;;;;;;23.28;42.54;100342.69;10496681;28;20044;-71
2023/05/10 09:28:00;;;;;;;19.10;2.38;;;;;;;23.01;43.00;100312.81;10497151;28;20178;-71
2023/05/10 09:33:02;;;;;;;8.15;2.50;;;;;;;23.14;42.95;100336.81;10497095;28;20137;-71
2023/05/10 09:38:04;;;;;;;6.63;2.00;;;;;;;22.88;42.57;100329.38;10495217;28;20063;-71
2023/05/10 09:43:07;;;;;;;6.40;1.88;;;;;;;22.76;42.60;100319.50;10495895;28;20121;-71
2023/05/10 09:48:08;;;;;;;12.88;2.17;;;;;;;22.78;42.57;100313.81;10496483;28;20039;-71
2023/05/10 09:53:09;;;;;;;7.93;1.65;;;;;;;23.08;42.01;100318.03;10494674;28;20063;-70
2023/05/10 09:58:10;;;;;;;18.83;3.08;;;;;;;23.19;42.92;100280.00;10496769;28;20060;-71
2023/05/10 10:03:18;;;;;;;9.95;2.40;;;;;;;23.31;41.91;100225.66;10496467;28;20040;-71
2023/05/10 10:08:20;;;;;;;18.60;2.20;;;;;;;24.14;41.59;100304.00;10496111;28;20098;-71
2023/05/10 10:13:21;;;;;;;9.25;1.73;;;;;;;24.36;41.76;100272.16;10482825;28;20511;-71
2023/05/10 10:18:26;;;;;;;17.98;3.17;;;;;;;24.10;41.42;100229.63;10454232;28;20080;-71
2023/05/10 10:23:27;;;;;;;10.30;2.08;;;;;;;24.36;41.36;100274.06;10454389;28;20408;-71
2023/05/10 10:28:36;;;;;;;17.83;2.10;;;;;;;24.51;40.58;100287.75;10479192;28;20052;-70
2023/05/10 10:34:04;;;;;;;20.35;2.42;;;;;;;24.22;40.52;100281.00;10495506;28;20412;-71
2023/05/10 10:39:10;;;;;;;10.35;1.95;;;;;;;23.59;40.11;100216.44;10468212;28;20045;-71
2023/05/10 10:44:26;;;;;;;7.05;1.90;;;;;;;24.24;40.39;100278.88;10453946;28;20045;-70
2023/05/10 10:49:27;;;;;;;43.03;2.53;;;;;;;24.13;41.13;100269.81;10453735;28;20041;-70
2023/05/10 10:54:28;;;;;;;32.70;16.45;;;;;;;23.63;40.91;100228.41;10458097;28;20033;-70
2023/05/10 10:59:29;;;;;;;33.35;11.23;;;;;;;24.09;41.90;100255.94;10462190;28;20448;-71
2023/05/10 11:04:42;;;;;;;7.20;3.03;;;;;;;24.09;40.24;100266.81;10461032;28;20051;-72
2023/05/10 11:09:43;;;;;;;11.65;1.95;;;;;;;23.71;40.43;100242.59;10461781;28;20120;-70
2023/05/10 11:14:50;;;;;;;6.05;2.22;;;;;;;23.77;39.96;100255.13;10461183;28;20136;-71
2023/05/10 11:20:10;;;;;;;7.10;2.03;;;;;;;23.86;40.04;100254.41;10460379;28;20075;-70
2023/05/10 11:25:11;;;;;;;13.38;2.25;;;;;;;23.91;40.66;100249.03;10460772;28;20048;-71
2023/05/10 11:30:12;;;;;;;8.23;2.55;;;;;;;23.74;40.48;100207.63;10461121;28;20485;-71
2023/05/10 11:35:13;;;;;;;10.38;2.55;;;;;;;24.16;40.86;100242.16;10459853;28;20068;-71
2023/05/10 11:40:14;;;;;;;8.98;1.90;;;;;;;24.14;40.67;100220.72;10473487;28;20079;-71
2023/05/10 11:45:15;;;;;;;11.57;2.35;;;;;;;24.26;39.94;100233.25;10471755;28;20040;-70
2023/05/10 11:50:17;;;;;;;31.85;2.63;;;;;;;24.02;39.75;100219.25;10459080;28;20048;-70
2023/05/10 11:55:18;;;;;;;29.23;2.58;;;;;;;23.82;40.32;100225.34;10459967;28;20076;-70
2023/05/10 12:00:19;;;;;;;10.35;2.00;;;;;;;23.61;40.24;100232.44;10459420;28;20044;-70
2023/05/10 12:05:20;;;;;;;12.73;2.90;;;;;;;23.36;40.50;100181.50;10458462;28;20140;-70
2023/05/10 12:10:26;;;;;;;12.32;2.65;;;;;;;23.55;39.47;100215.31;10458897;28;20041;-71
2023/05/10 12:15:27;;;;;;;20.33;5.95;;;;;;;23.40;40.82;100182.63;10466290;28;20045;-71
2023/05/10 12:20:28;;;;;;;11.40;3.03;;;;;;;23.10;40.77;100137.09;10458448;28;20044;-71
2023/05/10 12:25:31;;;;;;;13.10;2.05;;;;;;;23.40;41.02;100228.72;10469159;28;20087;-70
2023/05/10 12:30:35;;;;;;;5.88;1.98;;;;;;;22.69;41.17;100129.31;10458781;28;20047;-70
2023/05/10 12:35:50;;;;;;;14.45;3.10;;;;;;;22.97;41.69;100196.03;10457442;28;20044;-70
2023/05/10 12:40:51;;;;;;;19.38;4.32;;;;;;;22.88;42.26;100183.94;10457364;28;20072;-70
2023/05/10 12:45:52;;;;;;;15.00;4.72;;;;;;;23.02;42.10;100198.78;10457073;28;20060;-70
2023/05/10 12:50:53;;;;;;;8.60;1.67;;;;;;;22.48;42.12;100130.94;10457634;28;20043;-70
2023/05/10 12:55:53;;;;;;;18.65;2.10;;;;;;;22.81;42.41;100199.56;10488434;28;20056;-68
2023/05/10 13:00:56;;;;;;;26.92;2.92;;;;;;;22.79;42.27;100202.56;10498271;28;20032;-69
2023/05/10 13:05:56;;;;;;;6.30;1.90;;;;;;;22.40;42.49;100127.84;10479797;28;20439;-69
2023/05/10 13:10:57;;;;;;;8.52;1.95;;;;;;;22.89;42.16;100211.88;10465926;28;20036;-69
2023/05/10 13:15:58;;;;;;;8.95;2.45;;;;;;;22.92;42.30;100205.94;10497740;28;20547;-69
2023/05/10 13:20:59;;;;;;;5.20;2.30;;;;;;;22.90;42.30;100200.78;10497210;28;20048;-69
2023/05/10 13:26:01;;;;;;;18.02;5.47;;;;;;;22.84;41.88;100214.50;10470152;28;20041;-70
2023/05/10 13:31:02;;;;;;;8.93;2.83;;;;;;;22.81;42.40;100226.66;10453982;28;20041;-69
2023/05/10 13:36:03;;;;;;;8.07;2.58;;;;;;;22.63;42.35;100206.13;10456595;28;20032;-69
2023/05/10 13:41:04;;;;;;;6.18;2.22;;;;;;;22.57;42.60;100226.06;10455677;28;20412;-69
2023/05/10 13:46:05;;;;;;;9.43;2.60;;;;;;;22.04;42.84;100159.81;10455308;28;20040;-70
2023/05/10 13:51:06;;;;;;;13.40;2.00;;;;;;;22.38;43.12;100224.75;10454592;28;20075;-69
2023/05/10 13:56:06;;;;;;;17.27;3.83;;;;;;;22.29;43.40;100221.63;10473040;28;20512;-68
2023/05/10 14:01:07;;;;;;;8.45;2.10;;;;;;;22.12;43.55;100202.66;10460913;28;20057;-69
2023/05/10 14:06:08;;;;;;;7.75;2.03;;;;;;;22.23;43.51;100225.34;10473167;28;20500;-69
2023/05/10 14:11:09;;;;;;;9.18;2.10;;;;;;;22.13;43.87;100222.44;10495544;28;20051;-69
2023/05/10 14:16:10;;;;;;;9.63;1.83;;;;;;;21.89;43.94;100222.59;10460349;28;20044;-69
2023/05/10 14:21:11;;;;;;;12.05;1.90;;;;;;;21.75;44.14;100230.22;10453671;28;20083;-69
2023/05/10 14:26:12;;;;;;;7.78;2.03;;;;;;;21.34;44.49;100180.81;10458164;28;20037;-69
2023/05/10 14:31:14;;;;;;;8.40;1.27;;;;;;;21.52;44.46;100235.75;10488630;28;20048;-69
2023/05/10 14:36:14;;;;;;;10.38;1.95;;;;;;;21.34;44.80;100237.56;10462248;28;20037;-69
2023/05/10 14:41:17;;;;;;;5.93;1.55;;;;;;;21.25;45.34;100244.41;10462530;28;20041;-69
2023/05/10 14:46:18;;;;;;;10.77;2.00;;;;;;;21.15;45.56;100230.72;10495043;28;20538;-69
2023/05/10 14:51:21;;;;;;;9.70;1.52;;;;;;;21.05;46.04;100236.72;10503332;28;20033;-69
2023/05/10 14:56:22;;;;;;;10.52;2.20;;;;;;;20.99;46.44;100237.69;10502570;28;20064;-69
2023/05/10 15:01:23;;;;;;;13.60;2.28;;;;;;;20.80;46.36;100204.63;10503110;28;20044;-69
2023/05/10 15:06:31;;;;;;;11.38;3.53;;;;;;;20.69;46.86;100205.47;10503739;28;20508;-69
2023/05/10 15:11:32;;;;;;;23.52;5.63;;;;;;;19.87;47.11;100090.38;10502676;28;20040;-69
2023/05/10 15:16:32;;;;;;;20.38;10.38;;;;;;;20.61;47.76;100241.75;10501888;28;20405;-68
2023/05/10 15:21:38;;;;;;;11.85;3.50;;;;;;;20.17;48.04;100170.31;10502403;28;20127;-70
2023/05/10 15:26:39;;;;;;;20.73;7.75;;;;;;;19.98;48.42;100156.97;10502160;28;20654;-69
2023/05/10 15:31:40;;;;;;;19.52;5.13;;;;;;;20.38;48.50;100241.75;10498073;28;20091;-69
2023/05/10 15:36:42;;;;;;;8.10;2.55;;;;;;;20.15;48.79;100220.97;10475163;28;20045;-69
2023/05/10 15:41:43;;;;;;;10.35;2.42;;;;;;;20.10;49.00;100234.31;10499380;28;20134;-69
2023/05/10 15:46:44;;;;;;;9.65;2.47;;;;;;;19.82;49.23;100209.69;10501312;28;20150;-68
2023/05/10 15:51:45;;;;;;;12.52;1.77;;;;;;;19.86;49.35;100242.38;10486132;28;20040;-68
2023/05/10 15:56:45;;;;;;;7.90;1.70;;;;;;;19.89;49.37;100254.56;10460662;28;20135;-69
2023/05/10 16:01:47;;;;;;;8.10;1.90;;;;;;;19.39;50.04;100188.38;10497977;28;20045;-69
2023/05/10 16:06:48;;;;;;;10.23;1.90;;;;;;;19.77;50.05;100268.88;10501704;28;20050;-70
2023/05/10 16:11:49;;;;;;;4.95;1.80;;;;;;;19.63;50.23;100251.22;10499942;28;20499;-69
2023/05/10 16:16:50;;;;;;;12.38;2.13;;;;;;;19.68;50.53;100294.47;10462286;28;20050;-70
2023/05/10 16:21:50;;;;;;;7.45;2.00;;;;;;;19.61;50.64;100299.13;10479864;28;20044;-69
2023/05/10 16:26:51;;;;;;;6.75;2.13;;;;;;;18.68;51.09;100168.34;10495887;28;20496;-69
2023/05/10 16:31:52;;;;;;;14.60;2.75;;;;;;;19.51;51.24;100317.72;10457731;28;20401;-70
2023/05/10 16:36:53;;;;;;;8.52;3.05;;;;;;;19.41;51.25;100310.16;10477896;28;20094;-70
2023/05/10 16:41:54;;;;;;;12.63;4.03;;;;;;;19.35;51.79;100302.97;10470215;28;20048;-70
2023/05/10 16:46:55;;;;;;;8.98;2.58;;;;;;;19.27;52.23;100301.44;10468812;28;20033;-70
2023/05/10 16:51:55;;;;;;;9.98;3.28;;;;;;;19.22;52.75;100308.53;10472913;28;20080;-70
2023/05/10 16:56:56;;;;;;;12.75;4.78;;;;;;;19.30;53.32;100338.69;10471374;28;20048;-70
2023/05/10 17:01:57;;;;;;;25.52;11.25;;;;;;;19.20;53.41;100332.19;10478305;28;20048;-69
2023/05/10 17:06:58;;;;;;;19.30;6.38;;;;;;;19.11;54.34;100350.50;10470125;28;20029;-70
2023/05/10 17:11:59;;;;;;;9.52;3.67;;;;;;;18.30;58.66;100282.31;10480811;28;20049;-69
2023/05/10 17:16:59;;;;;;;6.57;2.47;;;;;;;18.15;61.99;100325.66;10492928;28;20045;-69
2023/05/10 17:22:00;;;;;;;5.25;2.53;;;;;;;18.11;64.31;100372.03;10475834;28;20068;-70
2023/05/10 17:27:02;;;;;;;6.55;2.30;;;;;;;17.52;66.19;100314.88;10467082;28;20044;-69
2023/05/10 17:32:03;;;;;;;10.20;2.72;;;;;;;17.64;68.69;100383.00;10468262;28;20040;-69
2023/05/10 17:37:04;;;;;;;5.30;1.90;;;;;;;17.40;69.86;100379.16;10481016;28;20048;-69
2023/05/10 17:42:05;;;;;;;8.48;2.30;;;;;;;17.30;71.00;100395.72;10462760;28;20488;-70
2023/05/10 17:47:06;;;;;;;7.68;2.25;;;;;;;17.14;72.05;100398.88;10459646;28;20049;-70
2023/05/10 17:52:06;;;;;;;6.03;1.98;;;;;;;16.49;72.66;100315.53;10472920;28;20090;-69
2023/05/10 17:57:07;;;;;;;3.65;2.28;;;;;;;16.81;73.75;100382.78;10468047;28;20045;-69
2023/05/10 18:02:08;;;;;;;4.75;2.15;;;;;;;16.65;75.01;100397.44;10473816;28;20056;-69
2023/05/10 18:07:09;;;;;;;6.43;2.25;;;;;;;15.99;75.46;100325.81;10467799;28;20102;-70
2023/05/10 18:12:10;;;;;;;4.85;2.35;;;;;;;16.33;76.21;100413.31;10474431;28;20072;-69
2023/05/10 18:17:10;;;;;;;8.60;2.60;;;;;;;15.91;76.98;100367.03;10475904;28;20051;-69
2023/05/10 18:22:11;;;;;;;4.80;2.40;;;;;;;16.12;77.42;100434.88;10474906;28;20056;-69
2023/05/10 18:27:12;;;;;;;4.78;2.20;;;;;;;16.02;78.39;100434.47;10469354;28;20413;-69
2023/05/10 18:32:13;;;;;;;3.35;1.52;;;;;;;15.98;78.27;100437.53;10480132;28;20054;-69
2023/05/10 18:37:14;;;;;;;3.30;1.10;;;;;;;15.66;78.48;100424.81;10475353;28;20032;-68
2023/05/10 18:42:15;;;;;;;4.53;1.10;;;;;;;15.56;79.08;100457.31;10472760;28;20135;-68
2023/05/10 18:47:16;;;;;;;15.98;0.80;;;;;;;14.96;79.05;100422.16;10455579;28;20464;-70
2023/05/10 18:52:16;;;;;;;3.95;0.50;;;;;;;15.04;78.64;100490.72;10453679;28;20128;-69
2023/05/10 18:57:19;;;;;;;7.70;0.60;;;;;;;14.66;78.49;100463.44;10453446;28;20061;-67
2023/05/10 19:02:20;;;;;;;1.63;0.30;;;;;;;14.51;78.25;100491.06;10453624;28;20052;-68
2023/05/10 19:07:21;;;;;;;2.47;0.70;;;;;;;14.43;78.49;100530.41;10453649;28;20037;-68
2023/05/10 19:12:22;;;;;;;6.72;0.40;;;;;;;14.06;78.57;100510.84;10452830;28;20064;-67
2023/05/10 19:17:23;;;;;;;1.20;0.50;;;;;;;13.93;79.00;100540.91;10459889;28;20060;-69
2023/05/10 19:22:24;;;;;;;1.42;0.40;;;;;;;13.78;79.33;100554.25;10476143;28;20382;-69
2023/05/10 19:27:24;;;;;;;1.23;0.70;;;;;;;13.62;79.21;100538.41;10478494;28;20036;-68
2023/05/10 19:32:25;;;;;;;1.95;0.40;;;;;;;13.62;78.48;100563.28;10460468;28;20489;-68
2023/05/10 19:37:26;;;;;;;1.77;0.32;;;;;;;13.63;78.64;100591.63;10461057;28;20075;-68
2023/05/10 19:42:27;;;;;;;2.60;0.50;;;;;;;13.47;79.07;100586.44;10460879;28;20041;-69
2023/05/10 19:47:28;;;;;;;1.77;0.38;;;;;;;13.54;78.56;100614.06;10460498;28;20044;-68
2023/05/10 19:52:28;;;;;;;0.60;0.32;;;;;;;13.39;77.87;100574.00;10458607;28;20516;-69
2023/05/10 19:57:29;;;;;;;0.65;0.20;;;;;;;13.54;77.98;100608.72;10459386;28;20530;-68
2023/05/10 20:02:30;;;;;;;0.70;0.20;;;;;;;13.49;77.98;100616.47;10458811;28;20041;-68
2023/05/10 20:07:31;;;;;;;0.95;0.30;;;;;;;13.48;78.15;100636.13;10459790;28;20052;-68
2023/05/10 20:12:32;;;;;;;1.90;0.90;;;;;;;13.39;77.39;100623.88;10459022;28;20119;-68
2023/05/10 20:17:34;;;;;;;1.15;0.40;;;;;;;13.05;77.48;100582.44;10457613;28;20045;-68
2023/05/10 20:22:35;;;;;;;0.52;0.20;;;;;;;13.35;77.07;100646.59;10458222;28;20048;-68
2023/05/10 20:27:36;;;;;;;0.70;0.20;;;;;;;13.16;77.01;100629.16;10457618;28;20040;-68
2023/05/10 20:32:37;;;;;;;1.55;0.20;;;;;;;13.07;76.92;100633.72;10458600;28;20543;-69
2023/05/10 20:37:38;;;;;;;0.20;0.10;;;;;;;12.82;76.66;100624.25;10458054;28;20094;-68
2023/05/10 20:42:39;;;;;;;0.43;0.20;;;;;;;12.36;76.77;100573.53;10457218;28;20029;-68
2023/05/10 20:47:40;;;;;;;0.68;0.20;;;;;;;12.31;76.76;100555.38;10456789;28;20049;-68
2023/05/10 20:52:41;;;;;;;1.67;0.50;;;;;;;12.78;76.86;100645.09;10457935;28;20055;-68
2023/05/10 20:57:41;;;;;;;3.85;0.38;;;;;;;12.76;77.28;100647.91;10468577;28;20053;-68
2023/05/10 21:02:44;;;;;;;1.73;0.30;;;;;;;12.67;77.73;100645.47;10457069;28;20396;-68
2023/05/10 21:07:45;;;;;;;0.95;0.30;;;;;;;12.49;77.20;100629.75;10456871;28;20072;-68
2023/05/10 21:12:46;;;;;;;1.10;0.28;;;;;;;12.51;77.83;100638.41;10456433;28;20048;-68
2023/05/10 21:17:46;;;;;;;0.90;0.20;;;;;;;12.34;77.79;100626.97;10455851;28;20123;-68
2023/05/10 21:22:47;;;;;;;1.88;0.30;;;;;;;12.50;78.03;100663.38;10455712;28;20041;-68
2023/05/10 21:27:48;;;;;;;0.20;0.10;;;;;;;12.41;78.45;100654.56;10456238;28;20385;-68
2023/05/10 21:32:49;;;;;;;0.20;0.10;;;;;;;12.29;78.52;100643.47;10456048;28;20044;-68
2023/05/10 21:37:49;;;;;;;0.43;0.10;;;;;;;12.03;78.71;100605.63;10455712;28;20515;-68
2023/05/10 21:42:51;;;;;;;1.02;0.30;;;;;;;12.12;78.93;100631.22;10454897;28;20041;-68
2023/05/10 21:47:52;;;;;;;0.52;0.20;;;;;;;12.26;78.94;100666.94;10454873;28;20053;-68
2023/05/10 21:52:53;;;;;;;0.20;0.10;;;;;;;12.21;79.51;100651.50;10455179;28;20048;-67
2023/05/10 21:57:54;;;;;;;1.17;0.30;;;;;;;12.15;79.65;100646.03;10455717;28;20053;-68
2023/05/10 22:02:55;;;;;;;0.57;0.30;;;;;;;12.16;79.64;100650.34;10455369;28;20041;-68
2023/05/10 22:07:55;;;;;;;1.38;0.28;;;;;;;12.19;79.35;100650.81;10454825;28;20123;-68
2023/05/10 22:12:57;;;;;;;0.40;0.20;;;;;;;12.16;79.61;100635.19;10454324;28;20041;-68
2023/05/10 22:17:57;;;;;;;0.80;0.30;;;;;;;12.17;79.90;100628.84;10454729;28;20477;-68
2023/05/10 22:22:58;;;;;;;0.63;0.20;;;;;;;12.03;79.55;100619.75;10454554;28;20037;-68
2023/05/10 22:27:59;;;;;;;1.02;0.30;;;;;;;11.94;79.62;100603.97;10453714;28;20076;-68
2023/05/10 22:33:00;;;;;;;0.65;0.30;;;;;;;12.14;80.11;100641.69;10453867;28;20505;-68
2023/05/10 22:38:01;;;;;;;16.42;0.63;;;;;;;11.94;80.14;100606.63;10454297;28;20051;-68
2023/05/10 22:43:01;;;;;;;0.55;0.30;;;;;;;11.98;80.00;100619.41;10453948;28;20037;-69
2023/05/10 22:48:03;;;;;;;0.80;0.40;;;;;;;11.78;79.60;100600.28;10453688;28;20389;-68
2023/05/10 22:53:05;;;;;;;0.60;0.30;;;;;;;11.60;79.85;100594.34;10462169;28;20076;-68
2023/05/10 22:58:06;;;;;;;1.58;0.50;;;;;;;11.39;79.71;100555.78;10461462;28;20060;-68
2023/05/10 23:03:07;;;;;;;0.85;0.40;;;;;;;11.87;79.08;100631.25;10462317;28;20455;-68